Time;durP1;ratioP1;P1;durP2;ratioP2;P2;SDS_P1;SDS_P2;PMS_P1;PMS_P2;Temp;Humidity;BMP_temperature;BMP_pressure;BME280_temperature;BME280_humidity;BME280_pressure;Samples;Min_cycle;Max_cycle;Signal;HPM_P1;HPM_P2
2024/03/21 00:01:35;;;;;;;6.10;5.50;;;12.60;1.00;;;;;;5076483;28;20443;-43
2024/03/21 00:04:04;;;;;;;5.23;4.70;;;12.60;1.00;;;;;;5078276;28;20177;-43
2024/03/21 00:06:30;;;;;;;6.20;5.60;;;12.60;1.00;;;;;;5062155;28;20430;-42
2024/03/21 00:08:56;;;;;;;5.80;5.27;;;12.50;1.00;;;;;;5078908;28;20470;-42
2024/03/21 00:11:22;;;;;;;6.30;5.30;;;12.50;1.00;;;;;;5077874;28;20184;-40
2024/03/21 00:13:47;;;;;;;6.47;5.80;;;12.50;1.00;;;;;;5057521;28;20531;-41
2024/03/21 00:16:13;;;;;;;5.83;5.23;;;12.40;1.00;;;;;;5079078;28;20439;-40
2024/03/21 00:18:39;;;;;;;6.70;4.83;;;12.40;1.00;;;;;;5078938;28;20169;-40
2024/03/21 00:21:05;;;;;;;6.07;5.40;;;12.40;1.00;;;;;;5079426;28;20508;-42
2024/03/21 00:23:31;;;;;;;7.93;5.63;;;12.30;1.00;;;;;;5078072;28;20481;-40
2024/03/21 00:26:00;;;;;;;6.07;5.10;;;12.30;15.30;;;;;;5072651;28;20189;-41
2024/03/21 00:28:27;;;;;;;5.50;4.90;;;12.30;52.40;;;;;;5076580;28;20475;-41
2024/03/21 00:30:56;;;;;;;6.37;5.33;;;12.20;99.90;;;;;;5077855;28;20400;-41
2024/03/21 00:33:25;;;;;;;6.70;5.50;;;12.20;99.90;;;;;;5061070;28;20752;-43
2024/03/21 00:35:51;;;;;;;5.13;4.43;;;12.20;99.90;;;;;;5078333;28;20423;-42
2024/03/21 00:38:17;;;;;;;5.90;5.23;;;12.10;99.90;;;;;;5078573;28;20765;-41
2024/03/21 00:40:43;;;;;;;5.63;5.03;;;12.10;99.90;;;;;;5078543;28;20483;-42
2024/03/21 00:43:09;;;;;;;6.20;5.60;;;12.10;99.90;;;;;;5078161;28;20420;-40
2024/03/21 00:45:34;;;;;;;5.83;4.87;;;12.10;99.90;;;;;;5078739;28;20427;-42
2024/03/21 00:48:03;;;;;;;7.00;4.93;;;12.10;99.90;;;;;;5076816;28;20208;-41
2024/03/21 00:50:29;;;;;;;5.50;4.87;;;12.00;99.90;;;;;;5078189;28;20528;-41
2024/03/21 00:52:55;;;;;;;5.13;4.30;;;12.00;99.90;;;;;;5086241;28;20474;-43
2024/03/21 00:55:21;;;;;;;4.40;4.00;;;12.00;99.90;;;;;;5098509;28;20652;-43
2024/03/21 00:57:46;;;;;;;5.33;4.57;;;11.90;99.90;;;;;;5098921;28;20233;-40
2024/03/21 01:00:13;;;;;;;5.30;4.80;;;11.90;99.90;;;;;;5098168;28;20867;-41
2024/03/21 01:02:40;;;;;;;4.87;4.30;;;11.90;1.00;;;;;;5098276;28;20181;-42
2024/03/21 01:05:07;;;;;;;4.63;4.23;;;11.90;1.00;;;;;;5097254;28;20523;-41
2024/03/21 01:07:32;;;;;;;5.03;4.63;;;11.90;1.00;;;;;;5098458;28;20461;-40
2024/03/21 01:09:58;;;;;;;4.60;4.20;;;11.90;1.00;;;;;;5080350;28;20670;-42
2024/03/21 01:12:24;;;;;;;5.00;4.50;;;11.90;1.00;;;;;;5098558;28;20169;-42
2024/03/21 01:14:49;;;;;;;4.60;4.20;;;11.90;1.00;;;;;;5098245;28;21161;-42
2024/03/21 01:17:15;;;;;;;4.93;4.40;;;11.90;1.00;;;;;;5098163;28;20407;-40
2024/03/21 01:19:40;;;;;;;5.30;4.57;;;11.90;1.00;;;;;;5079765;28;20184;-41
2024/03/21 01:22:06;;;;;;;4.80;4.40;;;11.80;1.00;;;;;;5098309;28;20172;-40
2024/03/21 01:24:32;;;;;;;6.20;4.73;;;11.80;1.00;;;;;;5097707;28;20373;-43
2024/03/21 01:26:58;;;;;;;5.20;4.17;;;11.80;1.00;;;;;;5097329;28;20176;-40
2024/03/21 01:29:23;;;;;;;4.77;4.37;;;11.80;9.60;;;;;;5097950;28;20549;-41
2024/03/21 01:31:49;;;;;;;4.57;4.17;;;11.80;46.40;;;;;;5098483;28;20195;-41
2024/03/21 01:34:15;;;;;;;4.90;4.50;;;11.80;99.90;;;;;;5080002;28;20213;-40
2024/03/21 01:36:52;;;;;;;4.57;4.17;;;11.80;99.90;;;;;;5079284;28;20437;-41
2024/03/21 01:39:19;;;;;;;4.43;4.03;;;11.80;99.90;;;;;;5097864;28;20176;-40
2024/03/21 01:41:45;;;;;;;5.10;4.60;;;11.80;99.90;;;;;;5079964;28;20462;-41
2024/03/21 01:44:19;;;;;;;5.93;4.00;;;11.80;99.90;;;;;;5097573;28;20441;-41
2024/03/21 01:46:46;;;;;;;7.50;4.00;;;11.80;99.90;;;;;;5097525;28;20839;-41
2024/03/21 01:49:12;;;;;;;5.70;4.70;;;11.90;99.90;;;;;;5097206;28;20798;-43
2024/03/21 01:51:39;;;;;;;4.27;3.97;;;11.90;1.00;;;;;;5097816;28;20411;-43
2024/03/21 01:54:06;;;;;;;5.10;4.40;;;11.90;1.00;;;;;;5075933;28;20479;-41
2024/03/21 01:56:33;;;;;;;4.50;4.10;;;11.90;1.00;;;;;;5075843;28;20706;-41
2024/03/21 01:58:59;;;;;;;4.13;3.70;;;11.90;1.00;;;;;;5077289;28;20434;-40
2024/03/21 02:01:29;;;;;;;5.30;4.43;;;11.90;1.00;;;;;;5076409;28;20423;-40
2024/03/21 02:03:59;;;;;;;4.63;4.23;;;11.90;1.00;;;;;;5077834;28;20423;-41
2024/03/21 02:06:27;;;;;;;4.23;3.83;;;11.90;24.20;;;;;;5077069;28;20494;-41
2024/03/21 02:08:53;;;;;;;5.33;3.70;;;11.90;42.10;;;;;;5077437;28;20507;-42
2024/03/21 02:11:19;;;;;;;4.37;3.93;;;11.90;99.90;;;;;;5077164;28;20492;-41
2024/03/21 02:13:46;;;;;;;4.07;3.77;;;12.00;99.90;;;;;;5059389;28;20424;-41
2024/03/21 02:16:12;;;;;;;3.90;3.50;;;12.00;99.90;;;;;;5077046;28;20423;-44
2024/03/21 02:18:38;;;;;;;4.67;4.20;;;12.00;99.90;;;;;;5077538;28;20535;-42
2024/03/21 02:21:06;;;;;;;4.47;4.03;;;12.00;1.00;;;;;;5076153;28;20720;-41
2024/03/21 02:23:32;;;;;;;4.20;3.80;;;12.10;1.00;;;;;;5077011;28;20188;-42
2024/03/21 02:25:58;;;;;;;3.70;3.40;;;12.10;1.00;;;;;;5077185;28;20427;-42
2024/03/21 02:28:25;;;;;;;4.70;4.30;;;12.10;1.00;;;;;;5077360;28;20501;-41
2024/03/21 02:30:52;;;;;;;4.23;3.13;;;12.10;1.00;;;;;;5076624;28;20510;-44
2024/03/21 02:33:19;;;;;;;4.27;3.87;;;12.20;84.50;;;;;;5076383;28;20408;-41
2024/03/21 02:35:44;;;;;;;5.10;4.57;;;12.20;99.90;;;;;;5058020;28;20432;-41
2024/03/21 02:38:10;;;;;;;4.30;3.70;;;12.20;99.90;;;;;;5075882;28;20450;-42
2024/03/21 02:40:36;;;;;;;5.93;3.83;;;12.20;99.90;;;;;;5074629;28;20177;-41
2024/03/21 02:43:02;;;;;;;4.10;3.30;;;12.20;99.90;;;;;;5075220;28;20173;-40
2024/03/21 02:45:27;;;;;;;4.53;3.50;;;12.20;99.90;;;;;;5074734;28;20173;-42
2024/03/21 02:47:53;;;;;;;4.67;3.30;;;12.20;99.90;;;;;;5067035;28;20477;-40
2024/03/21 02:50:19;;;;;;;6.00;5.50;;;12.20;1.00;;;;;;5074961;28;20215;-40
2024/03/21 02:52:44;;;;;;;4.03;3.63;;;12.30;1.00;;;;;;5082599;28;20614;-41
2024/03/21 02:55:10;;;;;;;4.97;3.60;;;12.30;1.00;;;;;;5097204;28;20252;-42
2024/03/21 02:57:36;;;;;;;4.23;3.83;;;12.30;1.00;;;;;;5096509;28;20172;-41
2024/03/21 03:00:02;;;;;;;4.00;3.60;;;12.30;1.00;;;;;;5095441;28;20488;-41
2024/03/21 03:02:28;;;;;;;3.70;3.30;;;12.30;1.00;;;;;;5088121;28;20188;-41
2024/03/21 03:04:53;;;;;;;4.83;4.43;;;12.30;1.00;;;;;;5076252;28;20181;-40
2024/03/21 03:07:19;;;;;;;4.10;3.70;;;12.30;1.00;;;;;;5081576;28;20466;-42
2024/03/21 03:09:45;;;;;;;3.70;3.40;;;12.40;1.00;;;;;;5082750;28;20180;-42
2024/03/21 03:12:10;;;;;;;3.37;3.07;;;12.40;1.00;;;;;;5093645;28;20185;-42
2024/03/21 03:14:36;;;;;;;3.80;3.40;;;12.40;1.00;;;;;;5089080;28;20288;-41
2024/03/21 03:17:02;;;;;;;3.93;3.50;;;12.40;1.00;;;;;;5081289;28;20180;-43
2024/03/21 03:19:28;;;;;;;4.00;3.70;;;12.40;1.00;;;;;;5100952;28;20180;-42
2024/03/21 03:21:54;;;;;;;3.50;3.20;;;12.40;1.00;;;;;;5100277;28;20175;-43
2024/03/21 03:24:19;;;;;;;3.93;3.53;;;12.40;1.00;;;;;;5100318;28;20703;-43
2024/03/21 03:26:45;;;;;;;4.20;3.80;;;12.50;1.00;;;;;;5100828;28;20211;-41
2024/03/21 03:29:11;;;;;;;3.80;3.43;;;12.50;1.00;;;;;;5100154;28;20574;-41
2024/03/21 03:31:37;;;;;;;3.20;2.90;;;12.40;1.00;;;;;;5100203;28;20176;-40
2024/03/21 03:36:47;;;;;;;4.23;3.93;;;12.50;1.00;;;;;;5084150;28;20438;-41
2024/03/21 03:39:13;;;;;;;4.83;3.80;;;12.50;1.00;;;;;;5100330;28;20529;-42
2024/03/21 03:41:39;;;;;;;3.83;3.30;;;12.50;1.00;;;;;;5100230;28;20181;-41
2024/03/21 03:44:05;;;;;;;4.10;3.70;;;12.50;1.00;;;;;;5098928;28;20495;-42
2024/03/21 03:46:46;;;;;;;3.57;3.27;;;12.50;1.00;;;;;;5099545;28;20180;-42
2024/03/21 03:49:11;;;;;;;3.97;3.57;;;12.50;1.00;;;;;;5100279;28;20886;-41
2024/03/21 03:51:37;;;;;;;4.53;4.13;;;12.50;1.00;;;;;;5099721;28;20426;-41
2024/03/21 03:54:02;;;;;;;3.90;3.57;;;12.50;1.00;;;;;;5100118;28;20612;-41
2024/03/21 03:56:28;;;;;;;5.80;3.87;;;12.50;1.00;;;;;;5099834;28;20168;-41
2024/03/21 03:58:54;;;;;;;4.50;3.93;;;12.50;1.00;;;;;;5081722;28;20172;-41
2024/03/21 04:01:19;;;;;;;3.97;3.67;;;12.50;1.00;;;;;;5099283;28;20176;-41
2024/03/21 04:03:45;;;;;;;4.83;3.70;;;12.50;1.00;;;;;;5081164;28;20184;-41
2024/03/21 04:06:10;;;;;;;4.67;4.00;;;12.50;1.00;;;;;;5098841;28;20574;-39
2024/03/21 04:08:36;;;;;;;5.63;4.10;;;12.50;1.00;;;;;;5099125;28;20666;-44
2024/03/21 04:11:02;;;;;;;3.83;3.47;;;12.50;1.00;;;;;;5098719;28;20165;-41
2024/03/21 04:13:27;;;;;;;3.80;3.40;;;12.50;1.00;;;;;;5071847;28;20176;-41
2024/03/21 04:15:57;;;;;;;3.87;3.57;;;12.50;8.10;;;;;;5079720;28;20208;-42
2024/03/21 04:18:25;;;;;;;4.87;4.03;;;12.50;47.70;;;;;;5088897;28;20287;-40
2024/03/21 04:20:52;;;;;;;4.00;3.60;;;12.50;81.00;;;;;;5097672;28;20435;-42
2024/03/21 04:23:17;;;;;;;4.90;3.73;;;12.50;99.90;;;;;;5099200;28;20526;-42
2024/03/21 04:25:43;;;;;;;4.20;3.80;;;12.50;99.90;;;;;;5099198;28;20789;-41
2024/03/21 04:28:09;;;;;;;4.57;4.07;;;12.50;99.90;;;;;;5087490;28;20223;-41
2024/03/21 04:30:36;;;;;;;4.70;4.03;;;12.50;99.90;;;;;;5095955;28;20248;-43
2024/03/21 04:33:02;;;;;;;4.10;3.30;;;12.50;99.90;;;;;;5096852;28;20188;-43
2024/03/21 04:35:27;;;;;;;4.17;3.47;;;12.50;99.90;;;;;;5097397;28;20422;-41
2024/03/21 04:37:53;;;;;;;7.13;4.27;;;12.50;99.90;;;;;;5096731;28;20738;-41
2024/03/21 04:40:20;;;;;;;4.57;3.70;;;12.50;99.90;;;;;;5096464;28;20272;-41
2024/03/21 04:42:46;;;;;;;5.37;4.00;;;12.50;99.90;;;;;;5096511;28;20180;-40
2024/03/21 04:45:11;;;;;;;4.20;3.80;;;12.60;99.90;;;;;;5096009;28;20437;-41
2024/03/21 04:47:37;;;;;;;5.93;3.53;;;12.60;99.90;;;;;;5096585;28;20588;-41
2024/03/21 04:50:03;;;;;;;3.67;3.30;;;12.60;99.90;;;;;;5096604;28;20251;-41
2024/03/21 04:52:28;;;;;;;3.80;3.50;;;12.60;99.90;;;;;;5097251;28;20227;-43
2024/03/21 04:54:55;;;;;;;3.80;3.50;;;12.60;99.90;;;;;;5098648;28;20422;-41
2024/03/21 04:57:20;;;;;;;4.47;3.73;;;12.60;99.90;;;;;;5080715;28;20203;-43
2024/03/21 04:59:46;;;;;;;3.50;3.20;;;12.70;99.90;;;;;;5080640;28;20832;-41
2024/03/21 05:02:12;;;;;;;3.90;3.50;;;12.70;99.90;;;;;;5098806;28;20175;-40
2024/03/21 05:04:38;;;;;;;4.10;3.03;;;12.70;99.90;;;;;;5098281;28;20870;-41
2024/03/21 05:07:03;;;;;;;3.80;3.50;;;12.70;99.90;;;;;;5098548;28;20188;-42
2024/03/21 05:09:29;;;;;;;4.07;3.67;;;12.70;99.90;;;;;;5098094;28;20212;-40
2024/03/21 05:11:55;;;;;;;3.87;3.40;;;12.70;99.90;;;;;;5098218;28;20535;-42
2024/03/21 05:14:20;;;;;;;3.30;3.00;;;12.70;99.90;;;;;;5097024;28;20191;-42
2024/03/21 05:16:46;;;;;;;4.00;3.23;;;12.70;1.00;;;;;;5090175;28;20191;-41
2024/03/21 05:19:12;;;;;;;3.87;3.47;;;12.70;1.00;;;;;;5096426;28;20267;-43
2024/03/21 05:21:39;;;;;;;3.67;3.10;;;12.70;1.00;;;;;;5097809;28;20181;-40
2024/03/21 05:24:05;;;;;;;3.97;3.67;;;12.80;1.00;;;;;;5097761;28;20293;-41
2024/03/21 05:26:31;;;;;;;3.30;3.00;;;12.80;1.00;;;;;;5097516;28;20449;-42
2024/03/21 05:28:57;;;;;;;4.33;3.43;;;12.80;1.00;;;;;;5097751;28;20450;-43
2024/03/21 05:31:24;;;;;;;4.03;3.70;;;12.80;1.00;;;;;;5097933;28;20474;-41
2024/03/21 05:33:50;;;;;;;3.93;3.20;;;12.80;1.00;;;;;;5097598;28;20430;-45
2024/03/21 05:36:16;;;;;;;3.50;3.20;;;12.90;1.00;;;;;;5096905;28;20656;-40
2024/03/21 05:38:46;;;;;;;4.13;3.83;;;12.90;1.00;;;;;;5097186;28;20177;-41
2024/03/21 05:41:12;;;;;;;3.80;3.50;;;12.90;1.00;;;;;;5098259;28;20430;-41
2024/03/21 05:43:37;;;;;;;4.47;4.07;;;12.90;1.00;;;;;;5097231;28;20842;-41
2024/03/21 05:46:04;;;;;;;4.43;3.93;;;13.00;1.00;;;;;;5096462;28;20429;-41
2024/03/21 05:48:34;;;;;;;4.50;4.00;;;13.00;1.00;;;;;;5096137;28;20474;-41
2024/03/21 05:51:00;;;;;;;4.07;3.60;;;13.00;1.00;;;;;;5096025;28;20433;-42
2024/03/21 05:53:26;;;;;;;4.80;3.97;;;13.00;1.00;;;;;;5094348;28;20875;-45
2024/03/21 05:56:05;;;;;;;6.27;3.97;;;13.10;1.00;;;;;;5094484;28;20701;-42
2024/03/21 05:58:34;;;;;;;3.70;3.37;;;13.10;99.90;;;;;;5095170;28;20410;-43
2024/03/21 06:03:33;;;;;;;4.70;4.30;;;13.20;99.90;;;;;;5095910;28;20426;-42
2024/03/21 06:06:00;;;;;;;4.23;3.83;;;13.20;99.90;;;;;;5051234;28;20447;-41
2024/03/21 06:08:27;;;;;;;3.97;3.63;;;13.20;99.90;;;;;;5058092;28;20471;-41
2024/03/21 06:10:52;;;;;;;4.10;3.70;;;13.20;99.90;;;;;;5057750;28;20453;-41
2024/03/21 06:13:19;;;;;;;5.63;4.03;;;13.30;19.70;;;;;;5075560;28;20434;-43
2024/03/21 06:15:44;;;;;;;4.03;3.63;;;13.30;1.00;;;;;;5074670;28;20440;-43
2024/03/21 06:18:10;;;;;;;4.20;3.80;;;13.30;1.00;;;;;;5075148;28;20492;-42
2024/03/21 06:20:36;;;;;;;4.10;3.63;;;13.30;1.00;;;;;;5058041;28;20189;-43
2024/03/21 06:23:02;;;;;;;3.67;3.30;;;13.40;23.20;;;;;;5057000;28;20173;-43
2024/03/21 06:25:27;;;;;;;3.80;3.50;;;13.40;99.90;;;;;;5073845;28;20201;-41
2024/03/21 06:27:53;;;;;;;3.80;3.50;;;13.40;99.90;;;;;;5057598;28;20300;-41
2024/03/21 06:30:19;;;;;;;3.80;3.00;;;13.40;1.00;;;;;;5075716;28;20188;-44
2024/03/21 06:32:45;;;;;;;3.47;3.17;;;13.50;1.00;;;;;;5076053;28;20173;-41
2024/03/21 06:35:11;;;;;;;4.40;3.50;;;13.50;1.00;;;;;;5075033;28;20527;-43
2024/03/21 06:37:37;;;;;;;5.00;3.30;;;13.60;90.10;;;;;;5076387;28;20571;-42
2024/03/21 06:40:06;;;;;;;4.20;3.13;;;13.60;99.90;;;;;;5072901;28;20213;-41
2024/03/21 06:42:35;;;;;;;3.93;3.53;;;13.70;99.90;;;;;;5075136;28;20423;-42
2024/03/21 06:45:01;;;;;;;3.40;3.10;;;13.70;1.00;;;;;;5077593;28;20423;-40
2024/03/21 06:47:27;;;;;;;4.53;3.23;;;13.70;1.00;;;;;;5075791;28;20435;-41
2024/03/21 06:49:56;;;;;;;3.70;3.40;;;13.80;1.00;;;;;;5077769;28;20414;-42
2024/03/21 06:52:25;;;;;;;4.27;3.13;;;13.80;1.00;;;;;;5078408;28;20216;-41
2024/03/21 06:54:51;;;;;;;4.00;3.60;;;13.80;1.00;;;;;;5061199;28;20434;-40
2024/03/21 06:57:17;;;;;;;3.73;3.10;;;13.80;1.00;;;;;;5080177;28;20423;-40
2024/03/21 06:59:44;;;;;;;4.33;3.70;;;13.80;1.00;;;;;;5061495;28;20363;-42
2024/03/21 07:02:10;;;;;;;3.00;2.70;;;13.80;1.00;;;;;;5079188;28;20523;-42
2024/03/21 07:04:36;;;;;;;3.77;3.47;;;13.80;1.00;;;;;;5061209;28;20825;-40
2024/03/21 07:07:02;;;;;;;3.70;3.23;;;13.80;1.00;;;;;;5061439;28;20431;-42
2024/03/21 07:09:27;;;;;;;4.40;4.00;;;13.80;1.00;;;;;;5079791;28;20480;-43
2024/03/21 07:11:53;;;;;;;4.80;4.00;;;13.80;1.00;;;;;;5079958;28;20259;-42
2024/03/21 07:14:19;;;;;;;3.97;3.57;;;13.70;1.00;;;;;;5079592;28;20517;-43
2024/03/21 07:16:44;;;;;;;4.17;3.77;;;13.70;59.90;;;;;;5079306;28;20523;-41
2024/03/21 07:19:10;;;;;;;4.10;3.80;;;13.80;99.90;;;;;;5079369;28;20267;-40
2024/03/21 07:21:36;;;;;;;3.70;3.40;;;13.80;99.90;;;;;;5080399;28;20586;-41
2024/03/21 07:24:02;;;;;;;4.13;3.43;;;13.80;99.90;;;;;;5062771;28;20462;-42
2024/03/21 07:26:29;;;;;;;3.57;3.27;;;13.80;99.90;;;;;;5042758;28;20197;-41
2024/03/21 07:28:54;;;;;;;4.53;3.53;;;13.80;99.90;;;;;;5079705;28;20455;-42
2024/03/21 07:31:20;;;;;;;3.70;3.40;;;13.80;99.90;;;;;;5046305;28;20418;-43
2024/03/21 07:33:51;;;;;;;5.60;3.47;;;13.80;99.90;;;;;;5079381;28;20189;-40
2024/03/21 07:36:18;;;;;;;4.00;3.70;;;13.80;99.90;;;;;;5060663;28;20494;-42
2024/03/21 07:38:44;;;;;;;5.70;3.80;;;13.90;99.90;;;;;;5078423;28;20920;-41
2024/03/21 07:41:09;;;;;;;3.93;3.53;;;14.00;99.90;;;;;;5077696;28;20553;-42
2024/03/21 07:43:35;;;;;;;4.07;3.67;;;14.10;99.90;;;;;;5077613;28;20173;-41
2024/03/21 07:46:01;;;;;;;5.23;4.73;;;14.20;99.90;;;;;;5079044;28;20848;-39
2024/03/21 07:48:27;;;;;;;4.03;3.63;;;14.30;99.90;;;;;;5059758;28;20470;-41
2024/03/21 07:50:53;;;;;;;5.80;3.97;;;14.50;99.90;;;;;;5062706;28;20185;-40
2024/03/21 07:53:18;;;;;;;3.90;3.50;;;14.70;99.90;;;;;;5076195;28;20458;-42
2024/03/21 07:55:44;;;;;;;4.40;4.00;;;14.80;16.80;;;;;;5059287;28;20548;-41
2024/03/21 07:58:10;;;;;;;4.43;3.57;;;15.00;1.00;;;;;;5078308;28;20181;-43
2024/03/21 08:00:35;;;;;;;3.50;3.20;;;15.20;1.00;;;;;;5078199;28;20181;-44
2024/03/21 08:03:01;;;;;;;6.13;3.80;;;15.40;1.00;;;;;;5061045;28;20215;-41
2024/03/21 08:05:26;;;;;;;4.37;3.70;;;15.60;99.90;;;;;;5062559;28;20204;-41
2024/03/21 08:07:52;;;;;;;4.87;3.67;;;15.80;1.00;;;;;;5060946;28;20205;-42
2024/03/21 08:10:18;;;;;;;4.70;3.37;;;16.00;99.90;;;;;;5078417;28;20233;-43
2024/03/21 08:12:43;;;;;;;3.93;3.53;;;16.10;47.00;;;;;;5079430;28;20193;-42
2024/03/21 08:15:09;;;;;;;4.13;3.10;;;16.20;1.00;;;;;;5077972;28;20184;-42
2024/03/21 08:17:35;;;;;;;4.63;3.67;;;16.20;99.90;;;;;;5060985;28;20181;-42
2024/03/21 08:20:01;;;;;;;3.27;2.97;;;16.30;99.90;;;;;;5079317;28;20165;-41
2024/03/21 08:22:27;;;;;;;4.20;3.80;;;16.40;95.40;;;;;;5060526;28;20176;-42
2024/03/21 08:24:53;;;;;;;3.60;3.03;;;16.50;1.00;;;;;;5059377;28;20427;-41
2024/03/21 08:27:19;;;;;;;4.37;3.97;;;16.70;1.00;;;;;;5060282;28;20427;-40
2024/03/21 08:29:51;;;;;;;3.90;3.50;;;17.00;99.90;;;;;;5077217;28;20540;-41
2024/03/21 08:32:23;;;;;;;3.83;3.53;;;17.20;1.00;;;;;;5076772;28;20419;-43
2024/03/21 08:34:49;;;;;;;4.80;4.40;;;17.40;99.90;;;;;;5077126;28;20856;-41
2024/03/21 08:37:14;;;;;;;4.50;4.10;;;17.60;1.00;;;;;;5075535;28;20473;-42
2024/03/21 08:39:41;;;;;;;6.43;3.97;;;17.70;99.90;;;;;;5042538;28;20475;-42
2024/03/21 08:42:07;;;;;;;4.43;3.50;;;17.80;67.70;;;;;;5043267;28;20623;-43
2024/03/21 08:44:33;;;;;;;4.10;3.80;;;17.80;1.00;;;;;;5076498;28;20530;-43
2024/03/21 08:46:59;;;;;;;4.53;4.10;;;17.90;1.00;;;;;;5076568;28;20441;-42
2024/03/21 08:49:24;;;;;;;4.40;2.60;;;17.90;99.90;;;;;;5042419;28;20455;-43
2024/03/21 08:51:50;;;;;;;3.93;2.20;;;17.90;1.00;;;;;;5076867;28;20606;-40
2024/03/21 08:54:16;;;;;;;3.93;3.53;;;18.20;1.00;;;;;;5075458;28;20488;-41
2024/03/21 08:56:42;;;;;;;6.33;2.90;;;18.50;99.90;;;;;;5041207;28;20196;-40
2024/03/21 08:59:08;;;;;;;5.90;2.77;;;18.70;30.30;;;;;;5058201;28;20415;-41
2024/03/21 09:01:34;;;;;;;5.27;2.90;;;19.00;1.00;;;;;;5059349;28;20467;-42
2024/03/21 09:04:00;;;;;;;4.17;3.23;;;19.20;1.00;;;;;;5076780;28;20447;-41
2024/03/21 09:06:26;;;;;;;3.27;2.97;;;19.40;1.00;;;;;;5077236;28;20415;-41
2024/03/21 09:08:52;;;;;;;4.90;3.40;;;19.70;99.90;;;;;;5077313;28;20208;-41
2024/03/21 09:11:18;;;;;;;4.70;3.00;;;19.80;99.90;;;;;;5076838;28;20790;-41
2024/03/21 09:13:45;;;;;;;3.43;3.13;;;20.00;99.90;;;;;;5058470;28;20205;-43
2024/03/21 09:16:11;;;;;;;3.97;3.67;;;20.20;99.90;;;;;;5075975;28;20426;-42
2024/03/21 09:18:37;;;;;;;8.80;3.10;;;20.40;99.90;;;;;;5075660;28;20423;-40
2024/03/21 09:21:03;;;;;;;3.10;2.90;;;20.70;99.90;;;;;;5076563;28;20265;-43
2024/03/21 09:23:29;;;;;;;4.17;3.27;;;21.00;99.90;;;;;;5078595;28;20280;-41
2024/03/21 09:26:01;;;;;;;3.63;3.30;;;21.20;99.30;;;;;;5077383;28;20411;-41
2024/03/21 09:28:27;;;;;;;4.20;3.50;;;21.50;59.00;;;;;;5057907;28;20578;-41
2024/03/21 09:30:53;;;;;;;4.70;4.30;;;21.60;17.40;;;;;;5075074;28;20427;-41
2024/03/21 09:33:19;;;;;;;4.47;3.60;;;21.80;1.00;;;;;;5076884;28;20469;-41
2024/03/21 09:35:58;;;;;;;5.17;4.00;;;21.80;1.00;;;;;;5074219;28;20220;-41
2024/03/21 09:38:23;;;;;;;3.33;3.03;;;22.00;1.00;;;;;;5073747;28;20185;-41
2024/03/21 09:40:50;;;;;;;4.30;4.00;;;22.40;1.00;;;;;;5074885;28;20418;-42
2024/03/21 09:43:16;;;;;;;4.43;4.03;;;22.90;1.00;;;;;;5076915;28;20203;-41
2024/03/21 09:45:45;;;;;;;4.93;4.53;;;23.60;1.00;;;;;;5075109;28;20427;-43
2024/03/21 09:48:11;;;;;;;4.47;4.07;;;23.80;1.00;;;;;;5058222;28;20273;-42
2024/03/21 09:50:41;;;;;;;4.50;4.10;;;24.10;1.00;;;;;;5076374;28;20411;-42
2024/03/21 09:53:12;;;;;;;4.17;3.77;;;24.20;1.00;;;;;;5076039;28;20504;-41
2024/03/21 09:55:38;;;;;;;4.30;3.20;;;24.10;1.00;;;;;;5059018;28;20830;-41
2024/03/21 09:58:05;;;;;;;4.00;3.70;;;24.00;1.00;;;;;;5076704;28;20419;-42
2024/03/21 10:00:31;;;;;;;3.57;3.27;;;23.90;1.00;;;;;;5058833;28;20446;-43
2024/03/21 10:02:57;;;;;;;3.43;3.17;;;23.80;1.00;;;;;;5074975;28;20671;-41
2024/03/21 10:05:23;;;;;;;4.40;3.93;;;23.60;1.00;;;;;;5073082;28;20816;-42
2024/03/21 10:07:49;;;;;;;5.20;3.20;;;23.30;1.00;;;;;;5075957;28;20321;-41
2024/03/21 10:10:14;;;;;;;5.53;3.87;;;23.00;1.00;;;;;;5076025;28;20199;-43
2024/03/21 10:12:40;;;;;;;5.37;2.87;;;22.70;1.00;;;;;;5074484;28;20402;-42
2024/03/21 10:15:11;;;;;;;4.77;4.13;;;22.70;1.00;;;;;;5073955;28;20539;-42
2024/03/21 10:17:36;;;;;;;2.87;2.47;;;22.70;1.00;;;;;;5075570;28;20185;-44
2024/03/21 10:20:03;;;;;;;4.83;2.97;;;22.80;1.00;;;;;;5075382;28;20403;-41
2024/03/21 10:22:31;;;;;;;3.97;3.47;;;23.10;1.00;;;;;;5076134;28;20185;-44
2024/03/21 10:24:58;;;;;;;3.20;2.90;;;23.50;1.00;;;;;;5075417;28;20808;-42
2024/03/21 10:27:23;;;;;;;4.13;3.53;;;23.70;1.00;;;;;;5074674;28;20423;-41
2024/03/21 10:29:50;;;;;;;3.80;3.17;;;23.70;1.00;;;;;;5076020;28;20455;-42
2024/03/21 10:32:18;;;;;;;8.10;3.33;;;23.90;1.00;;;;;;5057967;28;20683;-41
2024/03/21 10:34:54;;;;;;;4.97;3.50;;;24.70;1.00;;;;;;5089424;28;20658;-45
2024/03/21 10:37:24;;;;;;;6.23;3.50;;;25.70;1.00;;;;;;5096951;28;20425;-41
2024/03/21 10:39:54;;;;;;;6.70;3.93;;;26.70;1.00;;;;;;5095354;28;20434;-43
2024/03/21 10:42:27;;;;;;;5.47;3.80;;;27.50;1.00;;;;;;5078850;28;20400;-41
2024/03/21 10:44:59;;;;;;;4.90;3.77;;;28.20;1.00;;;;;;5091962;28;20447;-42
2024/03/21 10:47:25;;;;;;;4.00;3.60;;;28.30;1.00;;;;;;5074051;28;20891;-40
2024/03/21 10:49:51;;;;;;;3.90;3.50;;;28.10;1.00;;;;;;5056552;28;20506;-42
2024/03/21 10:52:17;;;;;;;4.17;3.23;;;27.80;1.00;;;;;;5076548;28;20719;-41
2024/03/21 10:54:43;;;;;;;4.40;3.97;;;27.80;1.00;;;;;;5076535;28;20423;-42
2024/03/21 10:57:21;;;;;;;4.50;4.10;;;27.40;1.00;;;;;;5075854;28;20177;-42
2024/03/21 11:00:09;;;;;;;4.70;3.53;;;26.70;1.00;;;;;;5076045;28;20788;-41
2024/03/21 11:02:35;;;;;;;4.90;3.30;;;26.20;1.00;;;;;;5057308;28;20413;-42
2024/03/21 11:05:12;;;;;;;4.60;3.70;;;25.70;1.00;;;;;;5041288;28;20690;-42
2024/03/21 11:07:39;;;;;;;5.40;4.30;;;25.50;1.00;;;;;;5073772;28;20830;-42
2024/03/21 11:10:06;;;;;;;5.50;5.00;;;25.70;1.00;;;;;;5058373;28;20433;-42
2024/03/21 11:12:34;;;;;;;5.03;4.53;;;26.10;1.00;;;;;;5059137;28;20726;-42
2024/03/21 11:15:05;;;;;;;4.60;4.10;;;26.70;1.00;;;;;;5075060;28;20437;-43
2024/03/21 11:17:30;;;;;;;5.40;4.50;;;27.30;1.00;;;;;;5075065;28;20454;-43
2024/03/21 11:20:01;;;;;;;5.53;4.97;;;27.30;1.00;;;;;;5075000;28;20386;-44
2024/03/21 11:22:27;;;;;;;5.50;3.90;;;27.80;1.00;;;;;;5075347;28;20185;-42
2024/03/21 11:24:52;;;;;;;6.57;3.60;;;28.80;1.00;;;;;;5041215;28;20435;-43
2024/03/21 11:27:19;;;;;;;4.10;3.80;;;29.70;1.00;;;;;;5075019;28;20201;-43
2024/03/21 11:29:45;;;;;;;4.97;3.83;;;30.50;1.00;;;;;;5076625;28;20205;-42
2024/03/21 11:32:12;;;;;;;3.33;3.03;;;31.30;1.00;;;;;;5060478;28;20402;-43
2024/03/21 11:34:39;;;;;;;3.27;2.97;;;31.10;1.00;;;;;;5061485;28;20415;-42
2024/03/21 11:37:06;;;;;;;4.40;3.47;;;30.70;1.00;;;;;;5060713;28;20674;-44
2024/03/21 11:39:35;;;;;;;3.97;3.37;;;30.80;1.00;;;;;;5044907;28;20457;-43
2024/03/21 11:42:01;;;;;;;7.43;3.40;;;31.20;1.00;;;;;;5079887;28;20761;-42
2024/03/21 11:44:27;;;;;;;3.90;3.50;;;31.80;1.00;;;;;;5043127;28;20841;-44
2024/03/21 11:46:53;;;;;;;7.13;3.40;;;32.50;1.00;;;;;;5060330;28;20423;-42
2024/03/21 11:49:19;;;;;;;3.93;3.50;;;32.80;1.00;;;;;;5078570;28;20623;-42
2024/03/21 11:51:45;;;;;;;4.43;3.40;;;32.90;1.00;;;;;;5043872;28;21042;-43
2024/03/21 11:54:13;;;;;;;4.07;3.43;;;32.30;1.00;;;;;;5079386;28;20240;-42
2024/03/21 11:56:39;;;;;;;2.90;2.40;;;32.10;1.00;;;;;;5061384;28;20431;-42
2024/03/21 11:59:05;;;;;;;6.47;3.53;;;32.40;1.00;;;;;;5077844;28;20411;-45
2024/03/21 12:01:31;;;;;;;4.00;3.60;;;32.00;1.00;;;;;;5060544;28;20334;-42
2024/03/21 12:03:57;;;;;;;5.50;3.30;;;31.90;1.00;;;;;;5059524;28;20495;-46
2024/03/21 12:06:23;;;;;;;3.47;3.17;;;32.20;1.00;;;;;;5077129;28;20711;-41
2024/03/21 12:08:51;;;;;;;4.00;3.70;;;32.70;1.00;;;;;;5076793;28;20450;-45
2024/03/21 12:11:18;;;;;;;2.50;2.30;;;33.40;1.00;;;;;;5077427;28;20486;-46
2024/03/21 12:13:44;;;;;;;3.23;2.93;;;34.00;1.00;;;;;;5060535;28;20390;-44
2024/03/21 12:16:12;;;;;;;3.10;2.80;;;34.50;1.00;;;;;;5078641;28;20406;-43
2024/03/21 12:18:38;;;;;;;6.47;3.40;;;35.00;1.00;;;;;;5076151;28;20514;-41
2024/03/21 12:21:04;;;;;;;4.10;2.97;;;35.40;1.00;;;;;;5058563;28;20638;-41
2024/03/21 12:23:30;;;;;;;5.60;3.23;;;35.40;1.00;;;;;;5059475;28;20235;-44
2024/03/21 12:25:56;;;;;;;3.83;3.23;;;34.80;1.00;;;;;;5077317;28;20411;-44
2024/03/21 12:28:26;;;;;;;4.63;4.23;;;34.80;1.00;;;;;;5077436;28;20470;-45
2024/03/21 12:30:52;;;;;;;4.37;3.70;;;34.90;1.00;;;;;;5076681;28;20170;-44
2024/03/21 12:33:18;;;;;;;3.73;3.43;;;34.20;1.00;;;;;;5058448;28;20398;-43
2024/03/21 12:35:44;;;;;;;5.00;3.30;;;33.30;1.00;;;;;;5076604;28;20306;-44
2024/03/21 12:38:09;;;;;;;3.77;3.37;;;32.20;1.00;;;;;;5075177;28;20434;-42
2024/03/21 12:40:35;;;;;;;5.80;4.03;;;31.20;1.00;;;;;;5056509;28;20207;-44
2024/03/21 12:43:01;;;;;;;6.27;3.80;;;30.40;1.00;;;;;;5075138;28;20441;-43
2024/03/21 12:45:27;;;;;;;5.63;4.30;;;29.60;1.00;;;;;;5076054;28;20568;-46
2024/03/21 12:47:52;;;;;;;6.50;3.90;;;29.00;1.00;;;;;;5117162;28;20436;-42
2024/03/21 12:50:18;;;;;;;4.93;4.40;;;28.60;1.00;;;;;;5100011;28;20791;-43
2024/03/21 12:52:44;;;;;;;5.30;4.67;;;28.30;1.00;;;;;;5117027;28;20220;-43
2024/03/21 12:55:10;;;;;;;5.27;4.77;;;27.90;1.00;;;;;;5116999;28;20841;-42